

Wyoming Mesonet
Water Resources Data System and State Climate Office
SEO WACNet, UW USACE UMRB, USDA-ARS, BLM
| Wind | Soil | |||||||||||||||||||
| Temp | Precip | Speed | Dir | Gust | Dir | Humidity | Pressure | Solar | Snow | Temperature (Deg F) | Moisture (%) | |||||||||
| Date Time (MST) | (F) | (in) | (mph) | (deg) | (mph) | (deg) | (%) | (Mbars) | (w/m^2) | (in) | 5cm | 10cm | 20cm | 50cm | 1m | 5cm | 10cm | 20cm | 50cm | 1m |
| 2026-08-30 00:00:00 | 61.23 | 0.00 | 6.62 | 203 | 6.96 | 203 | 90.6 | 861.0 | 0.0 | -0.2 | 68.18 | 68.54 | 67.64 | 64.76 | 63.14 | 3.9% | 9.4% | 10.9% | 12.1% | 7.7% |
| 2026-08-30 01:00:00 | 60.80 | 0.00 | 7.29 | 228 | 10.19 | 226 | 86.5 | 861.0 | 0.0 | -0.4 | 67.82 | 68.18 | 67.64 | 64.76 | 63.14 | 3.9% | 9.4% | 10.9% | 12.1% | 7.7% |
| 2026-08-30 02:00:00 | 60.51 | 0.00 | 8.72 | 211 | 11.31 | 228 | 85.9 | 861.0 | 0.0 | -0.3 | 67.46 | 68.00 | 67.64 | 64.76 | 63.14 | 3.9% | 9.4% | 10.8% | 12.1% | 7.7% |
| 2026-08-30 03:00:00 | 60.35 | 0.00 | 10.52 | 194 | 12.30 | 199 | 86.9 | 861.0 | 0.0 | -0.2 | 67.10 | 67.64 | 67.46 | 64.76 | 63.14 | 3.9% | 9.4% | 10.8% | 12.2% | 7.7% |
| 2026-08-30 04:00:00 | 59.97 | 0.00 | 9.50 | 190 | 12.17 | 187 | 83.0 | 861.0 | 0.0 | -0.2 | 66.56 | 67.46 | 67.46 | 64.76 | 63.14 | 3.9% | 9.4% | 10.9% | 12.2% | 7.7% |
| 2026-08-30 05:00:00 | 58.62 | 0.00 | 10.88 | 189 | 12.17 | 202 | 83.2 | 861.0 | 0.0 | -0.2 | 66.20 | 67.10 | 67.28 | 64.76 | 63.14 | 3.9% | 9.4% | 10.9% | 12.1% | 7.7% |
| 2026-08-30 06:00:00 | 61.23 | 0.00 | 11.55 | 184 | 14.78 | 189 | 76.0 | 862.0 | 68.6 | -0.2 | 66.02 | 66.92 | 67.10 | 64.76 | 63.14 | 3.9% | 9.4% | 10.9% | 12.2% | 7.7% |
| 2026-08-30 07:00:00 | 65.01 | 0.00 | 10.35 | 202 | 16.27 | 197 | 64.6 | 862.0 | 294.3 | -0.2 | 65.48 | 66.74 | 67.10 | 64.76 | 63.14 | 3.9% | 9.4% | 10.9% | 12.1% | 7.7% |
| 2026-08-30 08:00:00 | 68.92 | 0.00 | 10.58 | 186 | 14.91 | 212 | 56.6 | 862.0 | 446.9 | 0.2 | 65.48 | 66.38 | 66.92 | 64.76 | 63.32 | 3.9% | 9.4% | 10.8% | 12.1% | 7.7% |
| 2026-08-30 09:00:00 | 72.12 | 0.00 | 7.12 | 233 | 15.03 | 186 | 50.6 | 862.0 | 301.3 | 0.2 | 65.66 | 66.38 | 66.92 | 64.76 | 63.14 | 3.9% | 9.4% | 10.8% | 12.1% | 7.7% |
| 2026-08-30 10:00:00 | 77.43 | 0.00 | 10.92 | 181 | 16.52 | 176 | 45.6 | 862.0 | 744.0 | 0.2 | 66.02 | 66.38 | 66.74 | 64.76 | 63.32 | 3.9% | 9.4% | 10.9% | 12.1% | 7.7% |
| 2026-08-30 11:00:00 | 79.50 | 0.00 | 9.17 | 196 | 18.88 | 195 | 36.5 | 861.0 | 878.0 | 0.2 | 66.56 | 66.38 | 66.56 | 64.76 | 63.32 | 4.0% | 9.4% | 10.8% | 12.1% | 7.7% |
| 2026-08-30 12:00:00 | 81.28 | 0.00 | 9.69 | 221 | 16.52 | 238 | 32.5 | 861.0 | 975.0 | 0.2 | 67.10 | 66.56 | 66.56 | 64.76 | 63.32 | 4.0% | 9.4% | 10.8% | 12.1% | 7.7% |
| 2026-08-30 13:00:00 | 83.19 | 0.00 | 8.00 | 211 | 27.58 | 224 | 27.8 | 861.0 | 582.4 | 0.3 | 67.64 | 66.92 | 66.56 | 64.76 | 63.14 | 4.0% | 9.4% | 10.9% | 12.1% | 7.7% |
| 2026-08-30 14:00:00 | 69.49 | 0.00 | 30.18 | 351 | 46.33 | 299 | 55.5 | 863.0 | 395.7 | -0.2 | 67.82 | 67.10 | 66.56 | 64.76 | 63.14 | 4.0% | 9.4% | 10.8% | 12.1% | 7.7% |
| 2026-08-30 15:00:00 | 60.31 | 0.00 | 23.67 | 358 | 49.68 | 347 | 63.1 | 863.0 | 264.6 | -0.0 | 67.46 | 67.10 | 66.56 | 64.76 | 63.32 | 4.0% | 9.4% | 10.9% | 12.1% | 7.7% |
| 2026-08-30 16:00:00 | 60.57 | 0.00 | 9.80 | 11 | 30.69 | 351 | 61.4 | 864.0 | 359.6 | 0.1 | 66.56 | 66.92 | 66.56 | 64.58 | 63.14 | 4.0% | 9.4% | 10.8% | 12.1% | 7.7% |
| 2026-08-30 17:00:00 | 64.36 | 0.00 | 5.44 | 7 | 13.67 | 3 | 52.4 | 864.0 | 276.1 | -0.1 | 66.20 | 66.74 | 66.56 | 64.58 | 63.14 | 4.0% | 9.4% | 10.8% | 12.1% | 7.7% |
| 2026-08-30 18:00:00 | 62.04 | 0.00 | 6.84 | 353 | 13.29 | 340 | 58.1 | 864.0 | 97.7 | -0.2 | 66.02 | 66.56 | 66.56 | 64.76 | 63.14 | 4.0% | 9.4% | 10.8% | 12.1% | 7.7% |
| 2026-08-30 19:00:00 | 57.69 | 0.00 | 1.64 | 77 | 8.94 | 11 | 68.7 | 864.0 | 0.0 | -0.2 | 65.84 | 66.38 | 66.38 | 64.76 | 63.32 | 4.0% | 9.4% | 10.9% | 12.1% | 7.7% |
| 2026-08-30 20:00:00 | 55.36 | 0.00 | 3.95 | 136 | 4.47 | 125 | 76.9 | 864.0 | 0.0 | -0.5 | 65.12 | 66.02 | 66.38 | 64.58 | 63.32 | 4.0% | 9.4% | 10.8% | 12.1% | 7.7% |
| 2026-08-30 21:00:00 | 54.72 | 0.00 | 3.44 | 106 | 5.46 | 139 | 75.3 | 864.0 | 0.0 | -0.8 | 64.40 | 65.84 | 66.38 | 64.76 | 63.14 | 3.9% | 9.4% | 10.8% | 12.0% | 7.7% |
| 2026-08-30 22:00:00 | 53.94 | 0.00 | 3.28 | 133 | 4.85 | 144 | 71.6 | 865.0 | 0.0 | -0.7 | 63.86 | 65.48 | 66.20 | 64.76 | 63.32 | 3.9% | 9.4% | 10.8% | 12.1% | 7.7% |
| 2026-08-30 23:00:00 | 53.69 | 0.00 | 4.03 | 138 | 5.72 | 116 | 66.6 | 865.0 | 0.0 | -0.9 | 63.50 | 65.12 | 66.02 | 64.58 | 63.14 | 3.9% | 9.4% | 10.8% | 12.1% | 7.7% |